Time;durP1;ratioP1;P1;durP2;ratioP2;P2;SDS_P1;SDS_P2;PMS_P1;PMS_P2;Temp;Humidity;BMP_temperature;BMP_pressure;BME280_temperature;BME280_humidity;BME280_pressure;Samples;Min_cycle;Max_cycle;Signal;HPM_P1;HPM_P2
2021/04/20 00:02:39;;;;;;;24.92;17.10;;;6.10;99.90;;;;;;6219781;28;20041;-82
2021/04/20 00:05:39;;;;;;;21.27;15.60;;;6.40;99.90;;;;;;6219753;28;20030;-81
2021/04/20 00:08:40;;;;;;;23.00;16.10;;;;;;;;;;6219823;28;20030;-80
2021/04/20 00:11:41;;;;;;;22.48;15.95;;;;;;;;;;6225435;28;20104;-81
2021/04/20 00:14:42;;;;;;;23.05;16.33;;;6.10;99.90;;;;;;6213834;28;20770;-83
2021/04/20 00:17:43;;;;;;;20.92;15.65;;;;;;;;;;6187411;28;20040;-83
2021/04/20 00:20:44;;;;;;;22.73;15.95;;;;;;;;;;6189494;28;20068;-81
2021/04/20 00:23:45;;;;;;;20.58;16.15;;;6.40;99.90;;;;;;6235899;28;20033;-84
2021/04/20 00:26:46;;;;;;;22.05;16.85;;;;;;;;;;6216216;28;20111;-82
2021/04/20 00:29:47;;;;;;;23.42;17.08;;;;;;;;;;6221198;28;20025;-81
2021/04/20 00:32:47;;;;;;;23.17;16.58;;;6.40;99.90;;;;;;6219493;28;20025;-82
2021/04/20 00:35:48;;;;;;;23.70;16.70;;;6.80;99.90;;;;;;6188032;28;20091;-80
2021/04/20 00:38:49;;;;;;;21.70;16.38;;;6.30;99.90;;;;;;6216184;28;20165;-84
2021/04/20 00:42:02;;;;;;;22.05;16.15;;;6.30;99.90;;;;;;6218702;28;20169;-80
2021/04/20 00:45:04;;;;;;;20.65;14.80;;;;;;;;;;6186263;28;20121;-81
2021/04/20 00:48:05;;;;;;;20.95;15.15;;;6.20;99.90;;;;;;6220553;28;20030;-80
2021/04/20 00:51:06;;;;;;;21.52;16.00;;;6.20;99.90;;;;;;6202832;28;20064;-83
2021/04/20 00:54:07;;;;;;;22.50;17.38;;;6.30;99.90;;;;;;6218361;28;20084;-84
2021/04/20 00:57:07;;;;;;;24.85;18.38;;;6.20;99.90;;;;;;6218554;28;20037;-80
2021/04/20 01:00:13;;;;;;;26.45;18.27;;;6.40;99.90;;;;;;6218695;28;20030;-83
2021/04/20 01:03:14;;;;;;;23.25;17.67;;;6.00;99.90;;;;;;6213347;28;20037;-84
2021/04/20 01:06:15;;;;;;;25.67;16.05;;;5.90;99.90;;;;;;6187293;28;20041;-81
2021/04/20 01:09:16;;;;;;;25.83;18.20;;;6.00;99.90;;;;;;6218535;28;20120;-79
2021/04/20 01:12:17;;;;;;;24.60;17.77;;;6.50;99.90;;;;;;6201509;28;20026;-79
2021/04/20 01:15:17;;;;;;;24.02;18.30;;;6.20;99.90;;;;;;6192870;28;20097;-82
2021/04/20 01:18:19;;;;;;;19.70;15.70;;;6.10;99.90;;;;;;6186100;28;20032;-82
2021/04/20 01:21:20;;;;;;;21.57;16.03;;;6.00;99.90;;;;;;6218039;28;20109;-79
2021/04/20 01:24:22;;;;;;;23.38;17.48;;;6.00;99.90;;;;;;6217961;28;20489;-81
2021/04/20 01:27:22;;;;;;;22.58;17.90;;;6.00;99.90;;;;;;6217476;28;20030;-80
2021/04/20 01:30:23;;;;;;;25.58;17.48;;;5.50;99.90;;;;;;6198544;28;20033;-81
2021/04/20 01:33:24;;;;;;;24.42;17.08;;;5.60;99.90;;;;;;6185819;28;20113;-80
2021/04/20 01:36:25;;;;;;;27.80;18.70;;;5.60;99.90;;;;;;6219828;28;20507;-80
2021/04/20 01:39:26;;;;;;;23.97;18.50;;;5.60;99.90;;;;;;6200193;28;20038;-81
2021/04/20 01:42:27;;;;;;;25.08;17.88;;;5.50;99.90;;;;;;6217000;28;20056;-82
2021/04/20 01:45:29;;;;;;;27.13;18.73;;;6.90;99.90;;;;;;6217573;28;20388;-80
2021/04/20 01:48:29;;;;;;;22.33;16.02;;;5.50;99.90;;;;;;6184541;28;20484;-80
2021/04/20 01:51:30;;;;;;;20.25;15.60;;;5.30;99.90;;;;;;6201072;28;20030;-81
2021/04/20 01:54:31;;;;;;;23.42;16.50;;;7.20;99.90;;;;;;6185863;28;20029;-79
2021/04/20 01:57:31;;;;;;;26.88;17.83;;;7.20;99.90;;;;;;6207795;28;20034;-80
2021/04/20 02:00:32;;;;;;;24.40;16.83;;;5.70;99.90;;;;;;6185225;28;20382;-80
2021/04/20 02:03:33;;;;;;;23.00;17.75;;;;;;;;;;6216984;28;20045;-82
2021/04/20 02:06:33;;;;;;;25.02;16.73;;;5.30;99.90;;;;;;6217493;28;20029;-81
2021/04/20 02:09:34;;;;;;;23.75;17.50;;;5.30;99.90;;;;;;6217038;28;20061;-81
2021/04/20 02:12:36;;;;;;;21.70;16.75;;;5.40;99.90;;;;;;6216768;28;20037;-82
2021/04/20 02:15:36;;;;;;;23.65;15.30;;;5.50;99.90;;;;;;6217276;28;20037;-80
2021/04/20 02:18:51;;;;;;;25.02;15.60;;;4.70;99.90;;;;;;6214321;28;20088;-81
2021/04/20 02:21:53;;;;;;;23.10;16.75;;;5.60;99.90;;;;;;6198721;28;20074;-80
2021/04/20 02:24:53;;;;;;;22.00;15.45;;;4.90;99.90;;;;;;6185526;28;20028;-81
2021/04/20 02:27:54;;;;;;;22.65;15.85;;;5.00;99.90;;;;;;6216594;28;20030;-80
2021/04/20 02:30:54;;;;;;;23.25;15.57;;;5.00;99.90;;;;;;6217366;28;20053;-80
2021/04/20 02:33:55;;;;;;;23.35;15.00;;;4.70;99.90;;;;;;6216873;28;20045;-80
2021/04/20 02:36:56;;;;;;;22.83;16.13;;;5.30;99.90;;;;;;6216887;28;20531;-83
2021/04/20 02:39:57;;;;;;;24.05;17.70;;;5.00;99.90;;;;;;6216650;28;20093;-80
2021/04/20 02:42:57;;;;;;;25.33;17.45;;;4.80;99.90;;;;;;6216368;28;20058;-79
2021/04/20 02:46:02;;;;;;;24.15;16.80;;;4.90;99.90;;;;;;6206674;28;20049;-80
2021/04/20 02:49:03;;;;;;;24.55;16.70;;;5.50;99.90;;;;;;6184312;28;20030;-82
2021/04/20 02:52:03;;;;;;;23.02;15.88;;;5.10;99.90;;;;;;6216194;28;20056;-79
2021/04/20 02:55:09;;;;;;;25.10;16.77;;;4.60;99.90;;;;;;6217643;28;20026;-80
2021/04/20 02:58:17;;;;;;;26.08;17.20;;;4.50;99.90;;;;;;6189314;28;20026;-82
2021/04/20 03:01:22;;;;;;;24.33;16.40;;;4.50;99.90;;;;;;6205170;28;20543;-83
2021/04/20 03:04:22;;;;;;;22.95;16.35;;;4.50;99.90;;;;;;6221036;28;20470;-80
2021/04/20 03:07:23;;;;;;;25.30;16.02;;;4.70;99.90;;;;;;6221375;28;20026;-80
2021/04/20 03:10:25;;;;;;;26.98;17.77;;;6.40;99.90;;;;;;6205113;28;20064;-79
2021/04/20 03:13:26;;;;;;;22.77;16.47;;;5.00;99.90;;;;;;6188925;28;20476;-80
2021/04/20 03:16:26;;;;;;;25.20;17.45;;;4.60;99.90;;;;;;6221302;28;20084;-82
2021/04/20 03:19:27;;;;;;;26.75;17.90;;;4.60;99.90;;;;;;6220830;28;20038;-82
2021/04/20 03:22:28;;;;;;;25.00;17.15;;;5.10;99.90;;;;;;6220913;28;20091;-79
2021/04/20 03:25:31;;;;;;;23.88;17.55;;;4.70;99.90;;;;;;6221336;28;20033;-79
2021/04/20 03:28:31;;;;;;;25.27;15.70;;;5.50;99.90;;;;;;6220875;28;20056;-82
2021/04/20 03:31:34;;;;;;;21.88;16.25;;;5.50;99.90;;;;;;6220596;28;20057;-80
2021/04/20 03:34:37;;;;;;;28.25;17.40;;;4.70;99.90;;;;;;6220735;28;20048;-79
2021/04/20 03:37:52;;;;;;;32.88;19.38;;;4.50;99.90;;;;;;6220680;28;20064;-82
2021/04/20 03:40:55;;;;;;;26.73;18.02;;;4.60;99.90;;;;;;6204879;28;20026;-79
2021/04/20 03:43:58;;;;;;;23.83;16.83;;;4.90;99.90;;;;;;6188785;28;20056;-78
2021/04/20 03:47:00;;;;;;;26.00;16.95;;;5.00;99.90;;;;;;6220544;28;20547;-79
2021/04/20 03:50:01;;;;;;;24.52;16.52;;;5.40;99.90;;;;;;6220273;28;20041;-79
2021/04/20 03:53:06;;;;;;;24.38;17.00;;;4.60;99.90;;;;;;6203935;28;20687;-79
2021/04/20 03:56:07;;;;;;;24.98;17.25;;;4.50;99.90;;;;;;6188291;28;20026;-79
2021/04/20 03:59:08;;;;;;;23.30;16.95;;;4.50;99.90;;;;;;6220222;28;20408;-81
2021/04/20 04:02:08;;;;;;;23.15;16.90;;;4.30;99.90;;;;;;6220568;28;20466;-80
2021/04/20 04:05:18;;;;;;;26.92;17.10;;;4.00;99.90;;;;;;6220552;28;20076;-83
2021/04/20 04:08:19;;;;;;;26.98;17.45;;;4.50;99.90;;;;;;6204498;28;20026;-80
2021/04/20 04:11:20;;;;;;;84.43;42.67;;;4.60;99.90;;;;;;6203845;28;20030;-80
2021/04/20 04:14:22;;;;;;;28.90;21.35;;;4.20;99.90;;;;;;6186339;28;20068;-82
2021/04/20 04:17:22;;;;;;;28.58;18.67;;;4.80;99.90;;;;;;6211114;28;20593;-80
2021/04/20 04:20:23;;;;;;;30.65;19.13;;;4.00;99.90;;;;;;6188218;28;20069;-82
2021/04/20 04:23:25;;;;;;;28.02;17.75;;;4.20;99.90;;;;;;6187647;28;20052;-80
2021/04/20 04:26:28;;;;;;;24.47;17.40;;;4.20;99.90;;;;;;6187758;28;20037;-80
2021/04/20 04:29:28;;;;;;;26.52;18.42;;;5.10;99.90;;;;;;6171513;28;20365;-81
2021/04/20 04:32:29;;;;;;;25.70;18.80;;;4.00;99.90;;;;;;6218836;28;20026;-79
2021/04/20 04:35:34;;;;;;;24.70;16.50;;;4.10;99.90;;;;;;6219295;28;20038;-80
2021/04/20 04:38:34;;;;;;;27.40;17.45;;;4.60;99.90;;;;;;6219330;28;20030;-79
2021/04/20 04:41:35;;;;;;;23.63;18.17;;;4.00;99.90;;;;;;6217623;28;20054;-79
2021/04/20 04:44:37;;;;;;;24.08;16.63;;;;;;;;;;6173265;28;20037;-80
2021/04/20 04:47:38;;;;;;;26.23;17.60;;;3.90;99.90;;;;;;6221101;28;20025;-79
2021/04/20 04:50:41;;;;;;;25.10;17.25;;;4.10;99.90;;;;;;6218827;28;20041;-81
2021/04/20 04:53:42;;;;;;;37.92;23.98;;;5.30;99.90;;;;;;6170740;28;20116;-83
2021/04/20 04:56:43;;;;;;;31.87;19.60;;;5.70;99.90;;;;;;6219000;28;20061;-82
2021/04/20 04:59:44;;;;;;;47.28;27.30;;;3.80;99.90;;;;;;6206230;28;20279;-82
2021/04/20 05:02:47;;;;;;;86.80;39.53;;;3.90;99.90;;;;;;6186724;28;20034;-82
2021/04/20 05:05:47;;;;;;;34.60;20.42;;;3.90;99.90;;;;;;6202316;28;20060;-81
2021/04/20 05:08:48;;;;;;;26.63;19.45;;;;;;;;;;6202844;28;20026;-83
2021/04/20 05:11:51;;;;;;;27.52;18.67;;;3.90;99.90;;;;;;6188242;28;20030;-82
2021/04/20 05:14:52;;;;;;;;;;;5.00;99.90;;;;;;6212509;28;20041;-80
2021/04/20 05:17:52;;;;;;;28.30;17.50;;;3.80;99.90;;;;;;6194527;28;19909;-84
2021/04/20 05:20:53;;;;;;;24.02;17.08;;;3.70;99.90;;;;;;6205396;28;20034;-83
2021/04/20 05:23:54;;;;;;;24.38;17.52;;;;;;;;;;6187211;28;20484;-82
2021/04/20 05:26:55;;;;;;;26.80;18.17;;;;;;;;;;6217913;28;20030;-79
2021/04/20 05:29:56;;;;;;;24.65;17.13;;;;;;;;;;6216471;28;20034;-79
2021/04/20 05:32:58;;;;;;;26.08;17.08;;;4.10;99.90;;;;;;6189388;28;20164;-82
2021/04/20 05:36:09;;;;;;;24.75;17.02;;;4.40;99.90;;;;;;6201780;28;20117;-79
2021/04/20 05:39:10;;;;;;;25.50;16.08;;;;;;;;;;6217553;28;20034;-79
2021/04/20 05:42:11;;;;;;;25.45;16.90;;;;;;;;;;6217389;28;20404;-80
2021/04/20 05:45:14;;;;;;;24.13;16.70;;;4.20;99.90;;;;;;6199538;28;20025;-81
2021/04/20 05:48:15;;;;;;;29.15;17.70;;;;;;;;;;6185293;28;20022;-78
2021/04/20 05:51:16;;;;;;;24.27;16.88;;;;;;;;;;6215718;28;20514;-78
2021/04/20 05:54:17;;;;;;;28.00;18.10;;;;;;;;;;6217825;28;20034;-78
2021/04/20 05:57:18;;;;;;;26.35;18.10;;;;;;;;;;6217668;28;20079;-78
2021/04/20 06:00:20;;;;;;;30.05;19.70;;;;;;;;;;6215884;28;20081;-79
2021/04/20 06:03:21;;;;;;;29.05;19.88;;;;;;;;;;6216548;28;20586;-80
2021/04/20 06:06:22;;;;;;;28.08;19.45;;;4.90;99.90;;;;;;6216111;28;20033;-78
2021/04/20 06:09:23;;;;;;;29.00;19.27;;;5.10;99.90;;;;;;6202339;28;20480;-78
2021/04/20 06:12:23;;;;;;;44.28;32.40;;;5.10;99.90;;;;;;6215877;28;20180;-81
2021/04/20 06:15:24;;;;;;;27.45;19.58;;;5.50;99.90;;;;;;6215529;28;20022;-81
2021/04/20 06:18:25;;;;;;;26.27;18.27;;;5.40;99.90;;;;;;6206539;28;20146;-80
2021/04/20 06:21:26;;;;;;;28.45;18.48;;;6.40;99.90;;;;;;6201312;28;20037;-78
2021/04/20 06:24:27;;;;;;;27.30;17.98;;;5.60;99.90;;;;;;6217145;28;20541;-82
2021/04/20 06:27:28;;;;;;;25.27;18.25;;;6.90;99.90;;;;;;6184914;28;20026;-78
2021/04/20 06:30:29;;;;;;;33.13;23.77;;;5.90;99.90;;;;;;6215972;28;20030;-79
2021/04/20 06:33:31;;;;;;;29.00;20.05;;;6.00;99.90;;;;;;6216575;28;20069;-78
2021/04/20 06:36:31;;;;;;;30.00;20.03;;;6.60;99.90;;;;;;6217016;28;20030;-79
2021/04/20 06:39:32;;;;;;;26.85;19.25;;;6.40;99.90;;;;;;6216819;28;20376;-81
2021/04/20 06:42:33;;;;;;;26.83;18.33;;;6.60;99.90;;;;;;6216293;28;20057;-79
2021/04/20 06:45:55;;;;;;;23.33;17.45;;;6.80;99.90;;;;;;6216877;28;20065;-79
2021/04/20 06:49:15;;;;;;;26.70;17.70;;;7.80;99.90;;;;;;6216922;28;20022;-79
2021/04/20 06:52:49;;;;;;;25.50;17.38;;;7.40;99.90;;;;;;6216884;28;20034;-78
2021/04/20 06:56:09;;;;;;;24.80;17.38;;;7.70;99.90;;;;;;6216543;28;20388;-80
2021/04/20 06:59:26;;;;;;;24.98;17.65;;;8.00;99.90;;;;;;6213598;28;20026;-78
2021/04/20 07:02:35;;;;;;;25.23;17.73;;;8.30;99.30;;;;;;6216603;28;20053;-79
2021/04/20 07:05:59;;;;;;;21.75;16.13;;;9.00;99.90;;;;;;6216710;28;20038;-81
2021/04/20 07:09:11;;;;;;;21.95;17.10;;;9.30;99.90;;;;;;6191404;28;20503;-81
2021/04/20 07:12:12;;;;;;;23.50;18.13;;;10.20;95.10;;;;;;6216695;28;20038;-79
2021/04/20 07:15:20;;;;;;;20.98;17.48;;;11.40;93.20;;;;;;6216202;28;20365;-79
2021/04/20 07:18:24;;;;;;;20.55;15.15;;;12.30;90.30;;;;;;6200970;28;20026;-81
2021/04/20 07:21:44;;;;;;;20.95;15.38;;;13.30;90.60;;;;;;6217958;28;20033;-82
2021/04/20 07:25:00;;;;;;;21.50;15.70;;;14.10;87.70;;;;;;6218139;28;20419;-79
2021/04/20 07:28:27;;;;;;;18.42;14.50;;;14.70;83.30;;;;;;6186002;28;20037;-80
2021/04/20 07:31:44;;;;;;;17.58;14.52;;;15.30;74.30;;;;;;6216401;28;20038;-79
2021/04/20 07:35:08;;;;;;;17.33;14.25;;;15.70;76.60;;;;;;6216370;28;20026;-81
2021/04/20 07:38:21;;;;;;;17.42;14.32;;;16.10;72.90;;;;;;6216026;28;20041;-81
2021/04/20 07:41:31;;;;;;;18.90;14.10;;;15.90;73.60;;;;;;6210800;28;20052;-80
2021/04/20 07:45:02;;;;;;;18.85;14.52;;;16.40;66.90;;;;;;6188071;28;20480;-81
2021/04/20 07:48:23;;;;;;;16.38;13.38;;;17.10;94.30;;;;;;6220328;28;20029;-80
2021/04/20 07:51:32;;;;;;;17.77;13.82;;;17.30;64.40;;;;;;6206616;28;20054;-84
2021/04/20 07:54:56;;;;;;;19.80;14.10;;;17.50;79.10;;;;;;6222221;28;20025;-82
2021/04/20 07:58:01;;;;;;;15.80;13.52;;;18.00;68.80;;;;;;6206203;28;20036;-82
2021/04/20 08:01:07;;;;;;;18.52;14.02;;;18.00;81.20;;;;;;6204035;28;20463;-83
2021/04/20 08:04:31;;;;;;;14.98;13.38;;;18.50;67.20;;;;;;6188972;28;20037;-81
2021/04/20 08:08:09;;;;;;;14.57;12.60;;;18.50;63.90;;;;;;6236202;28;20079;-79
2021/04/20 08:11:12;;;;;;;15.27;13.48;;;18.60;62.30;;;;;;6200596;28;20045;-82
2021/04/20 08:14:13;;;;;;;16.63;13.85;;;18.80;63.50;;;;;;6219880;28;20708;-80
2021/04/20 08:17:22;;;;;;;18.45;15.85;;;18.90;65.00;;;;;;6221256;28;20026;-83
2021/04/20 08:20:24;;;;;;;17.33;15.48;;;19.20;60.00;;;;;;6220664;28;20026;-80
2021/04/20 08:23:28;;;;;;;19.67;16.05;;;19.20;62.20;;;;;;6204341;28;20121;-81
2021/04/20 08:26:42;;;;;;;18.58;15.57;;;19.50;63.30;;;;;;6187746;28;20034;-80
2021/04/20 08:29:43;;;;;;;17.88;15.65;;;19.50;62.30;;;;;;6219312;28;20029;-80
2021/04/20 08:32:50;;;;;;;19.58;16.00;;;19.60;62.20;;;;;;6214030;28;20038;-81
2021/04/20 08:35:52;;;;;;;20.67;15.75;;;20.00;64.20;;;;;;6203317;28;20389;-82
2021/04/20 08:39:11;;;;;;;;;;;20.20;61.00;;;;;;6188452;28;20037;-79
2021/04/20 08:42:15;;;;;;;22.95;17.42;;;20.50;54.90;;;;;;6220567;28;19922;-78
2021/04/20 08:45:40;;;;;;;18.80;16.20;;;20.40;57.70;;;;;;6235598;28;20025;-78
2021/04/20 08:49:17;;;;;;;18.30;16.35;;;20.40;69.40;;;;;;6190985;28;20041;-78
2021/04/20 08:52:41;;;;;;;18.17;16.27;;;20.50;70.80;;;;;;6217971;28;20084;-77
2021/04/20 08:56:04;;;;;;;18.95;16.35;;;20.60;72.90;;;;;;6218786;28;20030;-78
2021/04/20 08:59:16;;;;;;;21.95;17.08;;;20.50;58.30;;;;;;6210363;28;20060;-78
2021/04/20 09:02:16;;;;;;;20.45;17.33;;;20.60;68.80;;;;;;6209446;28;20038;-83
2021/04/20 09:05:24;;;;;;;20.58;16.75;;;20.70;59.00;;;;;;6219343;28;20384;-78
2021/04/20 09:08:42;;;;;;;22.38;16.50;;;20.70;55.50;;;;;;6188135;28;20512;-79
2021/04/20 09:12:10;;;;;;;19.58;16.48;;;20.50;60.10;;;;;;6218908;28;20030;-82
2021/04/20 09:15:36;;;;;;;20.15;16.45;;;20.20;76.80;;;;;;6215047;28;20124;-79
2021/04/20 09:18:41;;;;;;;18.70;16.08;;;22.10;72.00;;;;;;6213149;28;20484;-79
2021/04/20 09:22:00;;;;;;;19.75;15.88;;;19.80;69.20;;;;;;6189595;28;20036;-80
2021/04/20 09:25:20;;;;;;;19.55;16.60;;;19.60;57.90;;;;;;6196494;28;20026;-79
2021/04/20 09:28:30;;;;;;;17.92;15.55;;;19.50;61.20;;;;;;6205517;28;20117;-79
2021/04/20 09:31:39;;;;;;;20.05;16.75;;;19.40;74.90;;;;;;6218461;28;20113;-79
2021/04/20 09:34:42;;;;;;;17.55;15.75;;;18.90;63.10;;;;;;6218133;28;20080;-79
2021/04/20 09:37:43;;;;;;;17.58;15.07;;;18.10;66.40;;;;;;6191394;28;20030;-83
2021/04/20 09:40:44;;;;;;;19.50;17.00;;;17.30;70.00;;;;;;6201573;28;20492;-82
2021/04/20 09:44:00;;;;;;;18.65;16.23;;;17.20;72.60;;;;;;6186227;28;20058;-83
2021/04/20 09:47:37;;;;;;;21.02;16.40;;;17.60;74.40;;;;;;6219598;28;20034;-80
2021/04/20 09:51:01;;;;;;;19.35;16.02;;;17.70;69.40;;;;;;6217630;28;20026;-79
2021/04/20 09:54:29;;;;;;;20.55;16.17;;;17.40;78.10;;;;;;6217159;28;20050;-81
2021/04/20 09:57:33;;;;;;;18.92;16.83;;;17.70;77.00;;;;;;6217520;28;20026;-82
2021/04/20 10:00:34;;;;;;;18.27;14.60;;;17.80;77.30;;;;;;6208797;28;20022;-80
2021/04/20 10:03:52;;;;;;;17.80;15.85;;;17.70;76.00;;;;;;6216584;28;20088;-79
2021/04/20 10:07:50;;;;;;;18.52;15.68;;;17.10;73.30;;;;;;6215566;28;20029;-84
2021/04/20 10:11:10;;;;;;;18.40;16.17;;;16.10;79.30;;;;;;6127930;29;20525;-79
2021/04/20 10:14:39;;;;;;;19.63;16.23;;;16.00;81.30;;;;;;6106258;29;20031;-79
2021/04/20 10:17:54;;;;;;;21.60;17.63;;;15.60;87.30;;;;;;6105375;29;20031;-79
2021/04/20 10:21:14;;;;;;;19.50;15.85;;;15.40;88.80;;;;;;6120113;29;20051;-82
2021/04/20 10:24:22;;;;;;;19.38;15.55;;;15.10;86.80;;;;;;6119513;29;20079;-79
2021/04/20 10:27:25;;;;;;;18.80;16.63;;;15.00;84.50;;;;;;6104731;29;20054;-79
2021/04/20 10:30:34;;;;;;;20.80;16.95;;;14.90;88.00;;;;;;6103934;29;20123;-80
2021/04/20 10:33:36;;;;;;;18.50;15.88;;;15.00;86.60;;;;;;6087962;29;20035;-79
2021/04/20 10:36:36;;;;;;;21.95;17.13;;;15.00;87.30;;;;;;6126610;29;20046;-79
2021/04/20 10:39:37;;;;;;;18.58;15.52;;;15.60;87.30;;;;;;6110971;29;20035;-79
2021/04/20 10:42:38;;;;;;;21.17;16.40;;;16.20;84.40;;;;;;6177413;28;20042;-79
2021/04/20 10:45:41;;;;;;;19.50;16.23;;;16.20;83.10;;;;;;6211929;28;20629;-80
2021/04/20 10:48:45;;;;;;;24.92;16.90;;;16.20;82.20;;;;;;6185804;28;20080;-79
2021/04/20 10:51:46;;;;;;;19.17;16.67;;;16.30;81.00;;;;;;6209118;28;20037;-79
2021/04/20 10:54:46;;;;;;;21.38;17.75;;;16.40;82.70;;;;;;6200623;28;20396;-79
2021/04/20 10:57:47;;;;;;;22.13;17.05;;;16.40;81.70;;;;;;6184609;28;20112;-83
2021/04/20 11:00:51;;;;;;;25.73;17.52;;;16.20;81.30;;;;;;6200368;28;20030;-79
2021/04/20 11:03:52;;;;;;;19.58;16.20;;;16.30;77.20;;;;;;6185373;28;20060;-81
2021/04/20 11:06:53;;;;;;;18.13;15.50;;;;;;;;;;6216451;28;20030;-78
2021/04/20 11:10:01;;;;;;;21.02;17.05;;;16.00;77.20;;;;;;6218414;28;20022;-83
2021/04/20 11:13:01;;;;;;;20.73;15.93;;;15.90;90.80;;;;;;6216770;28;20036;-82
2021/04/20 11:16:06;;;;;;;19.75;15.55;;;15.90;92.80;;;;;;6201940;28;20034;-79
2021/04/20 11:19:08;;;;;;;20.60;16.02;;;15.90;83.80;;;;;;6188239;28;20037;-79
2021/04/20 11:22:13;;;;;;;18.85;15.73;;;16.00;83.10;;;;;;6221293;28;20076;-79
2021/04/20 11:25:54;;;;;;;18.73;16.67;;;15.80;82.30;;;;;;6215162;28;20061;-79
2021/04/20 11:28:56;;;;;;;19.70;16.55;;;15.80;77.60;;;;;;6207666;28;20431;-79
2021/04/20 11:31:57;;;;;;;17.65;15.43;;;15.70;82.50;;;;;;6220989;28;20539;-79
2021/04/20 11:35:08;;;;;;;18.85;16.13;;;15.80;82.50;;;;;;6220339;28;20040;-83
2021/04/20 11:38:08;;;;;;;20.27;16.52;;;15.90;82.50;;;;;;6220736;28;20036;-82
2021/04/20 11:41:09;;;;;;;20.40;15.77;;;15.90;82.30;;;;;;6205034;28;20038;-81
2021/04/20 11:44:10;;;;;;;18.60;14.50;;;15.80;81.00;;;;;;6202749;28;20038;-84
2021/04/20 11:47:11;;;;;;;18.80;15.90;;;16.30;83.90;;;;;;6204395;28;20432;-79
2021/04/20 11:50:13;;;;;;;19.65;16.75;;;16.60;83.40;;;;;;6188770;28;20388;-81
2021/04/20 11:53:13;;;;;;;18.73;15.60;;;16.60;79.40;;;;;;6220059;28;20045;-80
2021/04/20 11:56:14;;;;;;;18.92;16.58;;;17.10;81.60;;;;;;6220033;28;20520;-80
2021/04/20 11:59:21;;;;;;;19.30;15.55;;;16.50;83.20;;;;;;6220492;28;20112;-79
2021/04/20 12:02:27;;;;;;;16.77;14.98;;;16.70;82.40;;;;;;6219951;28;20058;-79
2021/04/20 12:05:28;;;;;;;19.88;15.13;;;17.00;82.20;;;;;;6204061;28;20117;-79
2021/04/20 12:08:39;;;;;;;20.25;16.02;;;17.10;80.60;;;;;;6217486;28;20026;-84
2021/04/20 12:11:39;;;;;;;18.70;16.42;;;17.00;76.10;;;;;;6188613;28;20372;-79
2021/04/20 12:14:40;;;;;;;18.55;16.08;;;16.90;79.40;;;;;;6219053;28;20026;-79
2021/04/20 12:17:42;;;;;;;18.00;15.82;;;17.10;78.40;;;;;;6220404;28;20029;-79
2021/04/20 12:20:42;;;;;;;19.27;15.23;;;17.40;80.20;;;;;;6220049;28;20357;-81
2021/04/20 12:23:46;;;;;;;18.40;16.50;;;17.90;76.50;;;;;;6219244;28;20041;-83
2021/04/20 12:26:53;;;;;;;20.35;17.00;;;17.70;72.90;;;;;;6219736;28;20034;-79
2021/04/20 12:29:54;;;;;;;19.92;16.88;;;17.70;74.80;;;;;;6219169;28;21108;-81
2021/04/20 12:32:55;;;;;;;21.27;17.92;;;17.50;73.00;;;;;;6189234;28;20212;-80
2021/04/20 12:35:56;;;;;;;19.25;16.02;;;17.40;74.70;;;;;;6187033;28;20034;-81
2021/04/20 12:39:01;;;;;;;17.52;15.52;;;17.10;73.50;;;;;;6219051;28;20084;-79
2021/04/20 12:42:05;;;;;;;19.63;16.15;;;16.40;73.00;;;;;;6218833;28;20449;-85
2021/04/20 12:45:14;;;;;;;21.95;19.48;;;16.20;90.10;;;;;;6187129;28;20962;-79
2021/04/20 12:48:16;;;;;;;19.15;16.33;;;16.30;80.30;;;;;;6218881;28;20041;-78
2021/04/20 12:51:18;;;;;;;19.67;16.70;;;16.50;89.90;;;;;;6218912;28;20451;-77
2021/04/20 12:54:20;;;;;;;18.55;15.25;;;16.50;89.20;;;;;;6218828;28;20030;-78
2021/04/20 12:57:22;;;;;;;18.02;15.35;;;16.50;90.60;;;;;;6220831;28;20025;-78
2021/04/20 13:00:27;;;;;;;17.75;15.27;;;16.90;78.30;;;;;;6218953;28;20124;-79
2021/04/20 13:03:28;;;;;;;19.73;17.33;;;17.10;76.10;;;;;;6218752;28;20476;-80
2021/04/20 13:06:28;;;;;;;19.73;17.45;;;17.70;75.50;;;;;;6202479;28;20037;-78
2021/04/20 13:09:35;;;;;;;19.20;17.13;;;17.80;74.00;;;;;;6218202;28;20030;-80
2021/04/20 13:12:39;;;;;;;22.08;18.70;;;17.80;75.20;;;;;;6218638;28;20038;-79
2021/04/20 13:15:39;;;;;;;21.55;17.10;;;18.10;89.60;;;;;;6212034;28;20038;-78
2021/04/20 13:18:40;;;;;;;28.98;23.73;;;18.50;73.60;;;;;;6186567;28;20097;-77
2021/04/20 13:21:41;;;;;;;23.80;20.88;;;18.60;73.90;;;;;;6218202;28;20065;-77
2021/04/20 13:24:42;;;;;;;17.90;15.77;;;18.60;72.00;;;;;;6217819;28;20040;-78
2021/04/20 13:27:48;;;;;;;18.35;16.38;;;18.90;70.60;;;;;;6218372;28;20029;-78
2021/04/20 13:30:50;;;;;;;17.40;14.95;;;19.10;70.80;;;;;;6234740;28;20034;-77
2021/04/20 13:34:00;;;;;;;16.30;14.35;;;19.00;65.50;;;;;;6202444;28;20033;-77
2021/04/20 13:37:02;;;;;;;15.68;13.57;;;18.90;60.80;;;;;;6188987;28;20044;-77
2021/04/20 13:40:11;;;;;;;15.40;12.88;;;18.60;64.80;;;;;;6216988;28;20091;-77
2021/04/20 13:43:12;;;;;;;14.40;12.90;;;18.30;64.40;;;;;;6217366;28;20053;-77
2021/04/20 13:46:12;;;;;;;16.45;13.68;;;18.20;67.70;;;;;;6217582;28;20489;-77
2021/04/20 13:49:13;;;;;;;15.68;13.27;;;18.20;67.30;;;;;;6217893;28;20030;-78
2021/04/20 13:52:14;;;;;;;13.07;11.15;;;18.20;64.00;;;;;;6219407;28;20076;-79
2021/04/20 13:55:15;;;;;;;14.52;12.27;;;18.50;68.20;;;;;;6186370;28;20548;-79
2021/04/20 13:58:26;;;;;;;14.30;12.50;;;18.60;65.10;;;;;;6217983;28;20038;-79
2021/04/20 14:01:28;;;;;;;13.77;11.73;;;18.40;66.90;;;;;;6217651;28;20034;-79
2021/04/20 14:04:37;;;;;;;15.38;12.93;;;18.00;70.20;;;;;;6217163;28;20049;-79
2021/04/20 14:07:42;;;;;;;14.10;12.60;;;17.90;70.90;;;;;;6185735;28;20041;-78
2021/04/20 14:10:44;;;;;;;16.25;12.70;;;17.90;69.10;;;;;;6199284;28;20039;-78
2021/04/20 14:13:44;;;;;;;14.52;12.73;;;17.80;70.50;;;;;;6185459;28;20032;-77
2021/04/20 14:16:45;;;;;;;16.05;11.68;;;17.70;71.00;;;;;;6217338;28;20033;-78
2021/04/20 14:19:50;;;;;;;13.23;11.65;;;17.60;71.70;;;;;;6217500;28;20046;-77
2021/04/20 14:22:52;;;;;;;15.40;11.30;;;17.30;72.50;;;;;;6206684;28;20030;-79
2021/04/20 14:25:53;;;;;;;13.10;11.63;;;17.30;70.20;;;;;;6185295;28;20498;-78
2021/04/20 14:29:05;;;;;;;12.25;10.95;;;17.00;84.10;;;;;;6217357;28;20096;-78
2021/04/20 14:32:08;;;;;;;14.55;12.68;;;17.10;71.60;;;;;;6217057;28;20267;-77
2021/04/20 14:35:09;;;;;;;11.98;10.48;;;17.10;71.20;;;;;;6206003;28;20030;-78
2021/04/20 14:38:10;;;;;;;11.45;10.23;;;16.80;72.00;;;;;;6218954;28;20088;-77
2021/04/20 14:41:12;;;;;;;13.25;11.07;;;16.80;73.40;;;;;;6200761;28;20034;-77
2021/04/20 14:44:17;;;;;;;11.95;10.50;;;16.70;73.70;;;;;;6200544;28;20042;-79
2021/04/20 14:47:19;;;;;;;12.18;10.45;;;16.80;73.90;;;;;;6197837;28;20604;-76
2021/04/20 14:50:24;;;;;;;13.77;10.85;;;16.70;72.80;;;;;;6216910;28;20073;-77
2021/04/20 14:53:28;;;;;;;12.68;10.88;;;16.70;73.10;;;;;;6223419;28;20030;-77
2021/04/20 14:56:31;;;;;;;12.48;10.50;;;17.00;73.00;;;;;;6216321;28;20036;-77
2021/04/20 14:59:33;;;;;;;11.35;10.15;;;17.30;70.30;;;;;;6190392;28;20033;-76
2021/04/20 15:02:34;;;;;;;13.98;10.75;;;17.70;67.90;;;;;;6221525;28;20073;-76
2021/04/20 15:05:35;;;;;;;12.93;11.52;;;18.10;68.10;;;;;;6189278;28;20483;-76
2021/04/20 15:08:48;;;;;;;15.95;10.57;;;18.10;67.20;;;;;;6221914;28;20564;-78
2021/04/20 15:12:34;;;;;;;10.80;9.65;;;18.00;68.70;;;;;;6205417;28;20488;-78
2021/04/20 15:15:59;;;;;;;11.25;9.50;;;18.00;66.60;;;;;;6187620;28;20062;-78
2021/04/20 15:19:08;;;;;;;11.68;10.13;;;18.10;68.00;;;;;;6221384;28;20030;-77
2021/04/20 15:22:14;;;;;;;11.32;10.13;;;18.00;69.50;;;;;;6220996;28;20041;-78
2021/04/20 15:25:19;;;;;;;12.55;10.77;;;18.20;70.10;;;;;;6221812;28;20041;-78
2021/04/20 15:28:23;;;;;;;12.13;10.35;;;18.00;69.80;;;;;;6220659;28;20376;-78
2021/04/20 15:31:23;;;;;;;11.88;10.70;;;18.00;69.80;;;;;;6220180;28;20030;-78
2021/04/20 15:34:25;;;;;;;15.80;11.10;;;17.90;68.50;;;;;;6210995;28;20037;-82
2021/04/20 15:37:27;;;;;;;11.93;9.90;;;18.00;72.70;;;;;;6189435;28;20061;-80
2021/04/20 15:40:30;;;;;;;11.55;9.38;;;18.00;71.70;;;;;;6190043;28;20030;-78
2021/04/20 15:43:30;;;;;;;13.05;10.07;;;18.10;68.40;;;;;;6206352;28;20432;-78
2021/04/20 15:46:32;;;;;;;10.38;9.27;;;18.00;68.50;;;;;;6188687;28;20111;-80
2021/04/20 15:49:43;;;;;;;11.20;9.75;;;17.50;68.10;;;;;;6217956;28;20034;-79
2021/04/20 15:52:44;;;;;;;12.13;9.98;;;17.60;67.10;;;;;;6203290;28;20088;-79
2021/04/20 15:55:45;;;;;;;14.23;10.30;;;;;;;;;;6187284;28;20037;-78